METAR AND TAF INFORMATION
METAR FOR MBPV
ADDS - METARS form results

(2059 UTC 21 March 2019)
Data provider http://aviationweather.gov/metar/data/
 
METAR text: MBPV 212200Z 20010KT 9999 SCT012 28/23 Q2987
Conditions at: MBPV (PROVIDENCIALES , BS) observed 2054 UTC 21 March 2019
Temperature: 28.0°C (82°F)
Dewpoint: 23.0°C (73°F) [RH = 74%]
Pressure (altimeter): missing
Winds: from the SSW (200 degrees) at 12 MPH (10 knots; 5.1 m/s)
Visibility: 6 or more miles (10+ km)
Ceiling: at least 12,000 feet AGL
Clouds: scattered clouds at 1200 feet AGL
Weather: no significant weather observed at this time

METAR text: MBPV 212000Z 18010KT 9999 SCT012 SCT020 29/24 Q2988
Conditions at: MBPV (PROVIDENCIALES , BS) observed 2000 UTC 21 March 2019
Temperature: 29.0°C (84°F)
Dewpoint: 24.0°C (75°F) [RH = 74%]
Pressure (altimeter): missing
Winds: from the S (180 degrees) at 12 MPH (10 knots; 5.1 m/s)
Visibility: 6 or more miles (10+ km)
Ceiling: at least 12,000 feet AGL
Clouds: scattered clouds at 1200 feet AGL
scattered clouds at 2000 feet AGL
Weather: no significant weather observed at this time

Forecast for: MBPV (PROVIDENCIALES , BS)
Text: MBPV 211655Z 2118/2218 22004KT 9999 FEW015
Forecast period: 1800 UTC 21 March 2019 to 0000 UTC 22 March 2019
Forecast type: FROM: standard forecast or significant change
Winds: from the SW (220 degrees) at 5 MPH (4 knots; 2.1 m/s)
Visibility: 6 or more miles 10+ km)
Ceiling: at least 12,000 feet AGL
Clouds: few clouds at 1500 feet AGL
Weather: no significant weather forecast for this period
Text: FM220000 17003KT FEW020 SCT040
Forecast period: 0000 to 1800 UTC 22 March 2019
Forecast type: FROM: standard forecast or significant change
Winds: from the S (170 degrees) at 3 MPH (3 knots; 1.5 m/s)
Visibility: missing
Ceiling: at least 12,000 feet AGL
Clouds: few clouds at 2000 feet AGL
scattered clouds at 4000 feet AGL
Weather: no significant weather forecast for this period

 AIRPORT MAP

 RUNWAY INFORMATION
Runway 10 Runway length 7598 ft Runway width 148 ft
Runway elevation 13 ft Runway displaced threshold 600 ft Runway heading 93
Runway 28 Runway length 7598 ft Runway width 148 ft
Runway elevation 3 ft Runway displaced threshold 0 ft Runway heading 273

 AIRPORT FREQUENCIES
Type APP Name PROVO APP Frequency 126 MHZ
Type GND Name GND Frequency 121.9 MHZ
Type TWR Name TWR Frequency 119.9 MHZ

 AIRPORT NEAR NAVIGATION AIDS
Type NDB Name Providenciales Frequency 387 KHZ
Type VOR-DME Name Providenciales Frequency 115600 KHZ



Powered by Virtual Airlines Manager [v2.6.2]